Airport View

Enter AWOS ICAO identifier for current METAR.

ex. KFNL

PARS 191756Z AUTO VRB03KT 10SM OVC013 13/11 A3010 RMK AO2 SLP196 T01330111 10139 20111 53007 $

19 Jun 2019 18:47

Frequency: 118.375

Phone: 907-584-5521

Other Area AWOS: PADM - PALG - PAHC - PANI

TAF PABE 191742Z 1918/2018 17012KT P6SM VCSH SCT008 OVC025 FM200300 18011KT P6SM VCSH BKN050